sensor_id;sensor_type;location;lat;lon;timestamp;P1;durP1;ratioP1;P2;durP2;ratioP2
44728;SDS011;30457;53.590;9.922;2022-09-30T00:00:21;4.95;;;2.70;;
44728;SDS011;30457;53.590;9.922;2022-09-30T00:04:47;2.60;;;2.40;;
44728;SDS011;30457;53.590;9.922;2022-09-30T00:09:14;3.63;;;2.78;;
44728;SDS011;30457;53.590;9.922;2022-09-30T00:13:40;4.10;;;2.92;;
44728;SDS011;30457;53.590;9.922;2022-09-30T00:18:06;4.05;;;2.55;;
44728;SDS011;30457;53.590;9.922;2022-09-30T00:22:31;3.53;;;2.83;;
44728;SDS011;30457;53.590;9.922;2022-09-30T00:26:57;3.95;;;3.10;;
44728;SDS011;30457;53.590;9.922;2022-09-30T00:31:23;3.40;;;2.88;;
44728;SDS011;30457;53.590;9.922;2022-09-30T00:35:51;2.97;;;2.65;;
44728;SDS011;30457;53.590;9.922;2022-09-30T00:40:20;6.15;;;3.70;;
44728;SDS011;30457;53.590;9.922;2022-09-30T00:44:50;6.30;;;3.15;;
44728;SDS011;30457;53.590;9.922;2022-09-30T00:49:21;4.18;;;3.08;;
44728;SDS011;30457;53.590;9.922;2022-09-30T00:53:50;4.10;;;2.97;;
44728;SDS011;30457;53.590;9.922;2022-09-30T01:03:04;4.03;;;2.90;;
44728;SDS011;30457;53.590;9.922;2022-09-30T01:07:31;3.70;;;2.90;;
44728;SDS011;30457;53.590;9.922;2022-09-30T01:11:58;3.72;;;3.22;;
44728;SDS011;30457;53.590;9.922;2022-09-30T01:21:29;3.13;;;2.83;;
44728;SDS011;30457;53.590;9.922;2022-09-30T01:26:13;3.78;;;3.35;;
44728;SDS011;30457;53.590;9.922;2022-09-30T01:40:49;4.00;;;3.20;;
44728;SDS011;30457;53.590;9.922;2022-09-30T01:45:41;3.25;;;2.95;;
44728;SDS011;30457;53.590;9.922;2022-09-30T01:50:21;4.22;;;3.47;;
44728;SDS011;30457;53.590;9.922;2022-09-30T01:54:58;5.03;;;3.10;;
44728;SDS011;30457;53.590;9.922;2022-09-30T02:00:19;4.28;;;3.40;;
44728;SDS011;30457;53.590;9.922;2022-09-30T02:04:35;5.95;;;3.78;;
44728;SDS011;30457;53.590;9.922;2022-09-30T02:18:47;4.47;;;3.80;;
44728;SDS011;30457;53.590;9.922;2022-09-30T02:23:24;4.78;;;3.83;;
44728;SDS011;30457;53.590;9.922;2022-09-30T02:27:53;3.92;;;3.55;;
44728;SDS011;30457;53.590;9.922;2022-09-30T02:32:29;7.10;;;4.18;;
44728;SDS011;30457;53.590;9.922;2022-09-30T02:37:23;4.88;;;3.88;;
44728;SDS011;30457;53.590;9.922;2022-09-30T02:41:53;7.32;;;3.75;;
44728;SDS011;30457;53.590;9.922;2022-09-30T02:46:30;4.38;;;3.97;;
44728;SDS011;30457;53.590;9.922;2022-09-30T02:51:14;4.68;;;4.05;;
44728;SDS011;30457;53.590;9.922;2022-09-30T03:00:43;5.18;;;4.22;;
44728;SDS011;30457;53.590;9.922;2022-09-30T03:05:09;5.70;;;3.83;;
44728;SDS011;30457;53.590;9.922;2022-09-30T03:09:35;4.57;;;3.65;;
44728;SDS011;30457;53.590;9.922;2022-09-30T03:14:48;5.20;;;4.03;;
44728;SDS011;30457;53.590;9.922;2022-09-30T03:29:07;4.80;;;4.05;;
44728;SDS011;30457;53.590;9.922;2022-09-30T03:33:40;4.53;;;4.00;;
44728;SDS011;30457;53.590;9.922;2022-09-30T03:43:08;7.80;;;4.50;;
44728;SDS011;30457;53.590;9.922;2022-09-30T03:47:43;5.65;;;3.63;;
44728;SDS011;30457;53.590;9.922;2022-09-30T03:52:15;5.70;;;4.05;;
44728;SDS011;30457;53.590;9.922;2022-09-30T03:56:41;6.13;;;4.05;;
44728;SDS011;30457;53.590;9.922;2022-09-30T04:01:07;4.45;;;3.95;;
44728;SDS011;30457;53.590;9.922;2022-09-30T04:05:43;4.88;;;4.35;;
44728;SDS011;30457;53.590;9.922;2022-09-30T04:10:08;6.38;;;4.22;;
44728;SDS011;30457;53.590;9.922;2022-09-30T04:14:35;5.20;;;4.25;;
44728;SDS011;30457;53.590;9.922;2022-09-30T04:19:01;5.30;;;4.35;;
44728;SDS011;30457;53.590;9.922;2022-09-30T04:23:26;5.57;;;4.47;;
44728;SDS011;30457;53.590;9.922;2022-09-30T04:27:52;6.30;;;4.70;;
44728;SDS011;30457;53.590;9.922;2022-09-30T04:32:20;5.63;;;4.60;;
44728;SDS011;30457;53.590;9.922;2022-09-30T04:36:46;5.40;;;4.50;;
44728;SDS011;30457;53.590;9.922;2022-09-30T04:41:12;10.75;;;5.28;;
44728;SDS011;30457;53.590;9.922;2022-09-30T04:45:43;9.48;;;5.03;;
44728;SDS011;30457;53.590;9.922;2022-09-30T04:50:09;4.97;;;4.35;;
44728;SDS011;30457;53.590;9.922;2022-09-30T04:54:34;6.35;;;4.38;;
44728;SDS011;30457;53.590;9.922;2022-09-30T04:59:00;6.40;;;5.18;;
44728;SDS011;30457;53.590;9.922;2022-09-30T05:03:26;4.88;;;4.25;;
44728;SDS011;30457;53.590;9.922;2022-09-30T05:07:51;5.50;;;3.80;;
44728;SDS011;30457;53.590;9.922;2022-09-30T05:12:17;6.47;;;4.80;;
44728;SDS011;30457;53.590;9.922;2022-09-30T05:16:42;7.97;;;4.95;;
44728;SDS011;30457;53.590;9.922;2022-09-30T05:21:08;6.35;;;5.35;;
44728;SDS011;30457;53.590;9.922;2022-09-30T05:25:34;5.78;;;4.63;;
44728;SDS011;30457;53.590;9.922;2022-09-30T05:30:00;6.50;;;5.03;;
44728;SDS011;30457;53.590;9.922;2022-09-30T05:34:26;11.52;;;5.47;;
44728;SDS011;30457;53.590;9.922;2022-09-30T05:38:52;6.75;;;5.22;;
44728;SDS011;30457;53.590;9.922;2022-09-30T05:43:18;5.05;;;3.97;;
44728;SDS011;30457;53.590;9.922;2022-09-30T05:47:49;7.18;;;4.45;;
44728;SDS011;30457;53.590;9.922;2022-09-30T05:52:16;5.65;;;4.70;;
44728;SDS011;30457;53.590;9.922;2022-09-30T05:56:41;6.22;;;4.82;;
44728;SDS011;30457;53.590;9.922;2022-09-30T06:01:08;5.72;;;4.90;;
44728;SDS011;30457;53.590;9.922;2022-09-30T06:05:35;7.43;;;4.90;;
44728;SDS011;30457;53.590;9.922;2022-09-30T06:10:02;9.07;;;5.20;;
44728;SDS011;30457;53.590;9.922;2022-09-30T06:14:29;5.28;;;4.78;;
44728;SDS011;30457;53.590;9.922;2022-09-30T06:18:55;10.25;;;5.38;;
44728;SDS011;30457;53.590;9.922;2022-09-30T06:23:20;7.07;;;5.47;;
44728;SDS011;30457;53.590;9.922;2022-09-30T06:27:46;7.63;;;5.53;;
44728;SDS011;30457;53.590;9.922;2022-09-30T06:32:11;6.18;;;5.40;;
44728;SDS011;30457;53.590;9.922;2022-09-30T06:36:38;6.30;;;5.15;;
44728;SDS011;30457;53.590;9.922;2022-09-30T06:41:03;7.72;;;5.07;;
44728;SDS011;30457;53.590;9.922;2022-09-30T06:45:29;5.63;;;4.60;;
44728;SDS011;30457;53.590;9.922;2022-09-30T06:49:57;6.28;;;5.20;;
44728;SDS011;30457;53.590;9.922;2022-09-30T06:54:23;6.75;;;4.97;;
44728;SDS011;30457;53.590;9.922;2022-09-30T06:58:48;5.70;;;4.90;;
44728;SDS011;30457;53.590;9.922;2022-09-30T07:03:22;6.63;;;4.82;;
44728;SDS011;30457;53.590;9.922;2022-09-30T07:07:49;5.53;;;4.57;;
44728;SDS011;30457;53.590;9.922;2022-09-30T07:12:16;8.18;;;5.07;;
44728;SDS011;30457;53.590;9.922;2022-09-30T07:16:41;8.10;;;4.97;;
44728;SDS011;30457;53.590;9.922;2022-09-30T07:21:09;5.75;;;4.50;;
44728;SDS011;30457;53.590;9.922;2022-09-30T07:25:36;5.53;;;4.63;;
44728;SDS011;30457;53.590;9.922;2022-09-30T07:30:02;9.98;;;5.25;;
44728;SDS011;30457;53.590;9.922;2022-09-30T07:34:28;9.55;;;5.18;;
44728;SDS011;30457;53.590;9.922;2022-09-30T07:38:54;6.95;;;5.40;;
44728;SDS011;30457;53.590;9.922;2022-09-30T07:43:20;7.30;;;5.30;;
44728;SDS011;30457;53.590;9.922;2022-09-30T07:47:47;5.80;;;4.35;;
44728;SDS011;30457;53.590;9.922;2022-09-30T07:52:13;6.22;;;4.80;;
44728;SDS011;30457;53.590;9.922;2022-09-30T07:56:39;4.97;;;3.85;;
44728;SDS011;30457;53.590;9.922;2022-09-30T08:01:06;6.20;;;4.30;;
44728;SDS011;30457;53.590;9.922;2022-09-30T08:05:37;4.60;;;3.88;;
44728;SDS011;30457;53.590;9.922;2022-09-30T08:10:04;5.63;;;3.53;;
44728;SDS011;30457;53.590;9.922;2022-09-30T08:14:30;6.03;;;3.80;;
44728;SDS011;30457;53.590;9.922;2022-09-30T08:18:59;5.53;;;3.40;;
44728;SDS011;30457;53.590;9.922;2022-09-30T08:23:27;6.47;;;4.25;;
44728;SDS011;30457;53.590;9.922;2022-09-30T08:27:52;4.65;;;3.80;;
44728;SDS011;30457;53.590;9.922;2022-09-30T08:32:18;5.63;;;3.20;;
44728;SDS011;30457;53.590;9.922;2022-09-30T08:36:44;6.65;;;3.65;;
44728;SDS011;30457;53.590;9.922;2022-09-30T08:55:14;4.57;;;3.08;;
44728;SDS011;30457;53.590;9.922;2022-09-30T08:59:49;4.70;;;3.50;;
44728;SDS011;30457;53.590;9.922;2022-09-30T09:04:18;6.25;;;3.13;;
44728;SDS011;30457;53.590;9.922;2022-09-30T09:09:02;6.30;;;3.25;;
44728;SDS011;30457;53.590;9.922;2022-09-30T09:22:59;6.22;;;2.45;;
44728;SDS011;30457;53.590;9.922;2022-09-30T09:27:50;2.55;;;2.33;;
44728;SDS011;30457;53.590;9.922;2022-09-30T09:36:56;2.95;;;2.50;;
44728;SDS011;30457;53.590;9.922;2022-09-30T09:46:40;4.45;;;3.00;;
44728;SDS011;30457;53.590;9.922;2022-09-30T09:51:15;5.47;;;2.90;;
44728;SDS011;30457;53.590;9.922;2022-09-30T09:55:53;6.55;;;2.70;;
44728;SDS011;30457;53.590;9.922;2022-09-30T10:00:24;5.88;;;2.60;;
44728;SDS011;30457;53.590;9.922;2022-09-30T10:05:15;3.65;;;2.70;;
44728;SDS011;30457;53.590;9.922;2022-09-30T10:09:50;8.80;;;3.22;;
44728;SDS011;30457;53.590;9.922;2022-09-30T10:14:56;3.50;;;2.30;;
44728;SDS011;30457;53.590;9.922;2022-09-30T10:19:35;2.45;;;2.22;;
44728;SDS011;30457;53.590;9.922;2022-09-30T10:24:05;3.38;;;2.80;;
44728;SDS011;30457;53.590;9.922;2022-09-30T10:29:20;4.40;;;2.80;;
44728;SDS011;30457;53.590;9.922;2022-09-30T10:34:00;4.93;;;2.40;;
44728;SDS011;30457;53.590;9.922;2022-09-30T10:38:35;4.57;;;2.08;;
44728;SDS011;30457;53.590;9.922;2022-09-30T10:43:16;3.88;;;2.42;;
44728;SDS011;30457;53.590;9.922;2022-09-30T10:47:45;4.00;;;2.53;;
44728;SDS011;30457;53.590;9.922;2022-09-30T10:52:16;2.75;;;2.55;;
44728;SDS011;30457;53.590;9.922;2022-09-30T11:05:47;3.40;;;1.58;;
44728;SDS011;30457;53.590;9.922;2022-09-30T11:10:24;1.98;;;1.60;;
44728;SDS011;30457;53.590;9.922;2022-09-30T11:15:07;2.33;;;1.60;;
44728;SDS011;30457;53.590;9.922;2022-09-30T11:20:05;3.10;;;1.50;;
44728;SDS011;30457;53.590;9.922;2022-09-30T11:24:44;2.40;;;1.70;;
44728;SDS011;30457;53.590;9.922;2022-09-30T11:47:59;2.80;;;1.80;;
44728;SDS011;30457;53.590;9.922;2022-09-30T11:52:52;1.52;;;1.42;;
44728;SDS011;30457;53.590;9.922;2022-09-30T11:57:31;3.42;;;1.80;;
44728;SDS011;30457;53.590;9.922;2022-09-30T12:02:25;4.00;;;1.60;;
44728;SDS011;30457;53.590;9.922;2022-09-30T12:07:05;2.33;;;1.60;;
44728;SDS011;30457;53.590;9.922;2022-09-30T12:11:42;1.70;;;1.60;;
44728;SDS011;30457;53.590;9.922;2022-09-30T12:16:27;1.52;;;1.42;;
44728;SDS011;30457;53.590;9.922;2022-09-30T12:21:00;2.13;;;1.60;;
44728;SDS011;30457;53.590;9.922;2022-09-30T12:25:36;2.88;;;1.98;;
44728;SDS011;30457;53.590;9.922;2022-09-30T12:30:15;5.55;;;2.10;;
44728;SDS011;30457;53.590;9.922;2022-09-30T12:39:51;3.20;;;2.20;;
44728;SDS011;30457;53.590;9.922;2022-09-30T12:44:25;7.95;;;2.42;;
44728;SDS011;30457;53.590;9.922;2022-09-30T12:49:14;3.20;;;2.90;;
44728;SDS011;30457;53.590;9.922;2022-09-30T12:53:43;4.75;;;2.40;;
44728;SDS011;30457;53.590;9.922;2022-09-30T12:58:18;2.47;;;2.15;;
44728;SDS011;30457;53.590;9.922;2022-09-30T13:02:54;4.23;;;3.20;;
44728;SDS011;30457;53.590;9.922;2022-09-30T13:07:28;3.53;;;2.95;;
44728;SDS011;30457;53.590;9.922;2022-09-30T13:21:32;3.20;;;2.25;;
44728;SDS011;30457;53.590;9.922;2022-09-30T13:25:58;4.18;;;2.60;;
44728;SDS011;30457;53.590;9.922;2022-09-30T13:34:55;2.70;;;2.30;;
44728;SDS011;30457;53.590;9.922;2022-09-30T13:43:55;2.65;;;2.17;;
44728;SDS011;30457;53.590;9.922;2022-09-30T13:48:28;3.65;;;2.45;;
44728;SDS011;30457;53.590;9.922;2022-09-30T13:52:58;2.55;;;2.35;;
44728;SDS011;30457;53.590;9.922;2022-09-30T13:57:27;3.20;;;2.45;;
44728;SDS011;30457;53.590;9.922;2022-09-30T14:07:02;5.82;;;3.22;;
44728;SDS011;30457;53.590;9.922;2022-09-30T14:21:25;3.60;;;3.30;;
44728;SDS011;30457;53.590;9.922;2022-09-30T14:30:43;5.22;;;3.63;;
44728;SDS011;30457;53.590;9.922;2022-09-30T14:35:30;3.47;;;3.10;;
44728;SDS011;30457;53.590;9.922;2022-09-30T14:39:57;5.35;;;3.47;;
44728;SDS011;30457;53.590;9.922;2022-09-30T14:44:24;3.08;;;2.67;;
44728;SDS011;30457;53.590;9.922;2022-09-30T14:48:54;7.10;;;3.45;;
44728;SDS011;30457;53.590;9.922;2022-09-30T14:53:33;5.38;;;4.07;;
44728;SDS011;30457;53.590;9.922;2022-09-30T15:02:44;4.47;;;3.30;;
44728;SDS011;30457;53.590;9.922;2022-09-30T15:07:10;7.10;;;3.75;;
44728;SDS011;30457;53.590;9.922;2022-09-30T15:11:36;6.38;;;4.10;;
44728;SDS011;30457;53.590;9.922;2022-09-30T15:16:02;4.63;;;3.28;;
44728;SDS011;30457;53.590;9.922;2022-09-30T15:20:45;5.70;;;3.78;;
44728;SDS011;30457;53.590;9.922;2022-09-30T15:25:12;4.10;;;3.70;;
44728;SDS011;30457;53.590;9.922;2022-09-30T15:29:52;5.90;;;3.63;;
44728;SDS011;30457;53.590;9.922;2022-09-30T15:34:23;3.88;;;2.78;;
44728;SDS011;30457;53.590;9.922;2022-09-30T15:42:37;8.70;;;4.10;;
44728;SDS011;30457;53.590;9.922;2022-09-30T15:47:18;3.88;;;3.08;;
44728;SDS011;30457;53.590;9.922;2022-09-30T15:51:44;4.95;;;4.25;;
44728;SDS011;30457;53.590;9.922;2022-09-30T16:00:49;4.18;;;3.15;;
44728;SDS011;30457;53.590;9.922;2022-09-30T16:05:16;7.80;;;4.65;;
44728;SDS011;30457;53.590;9.922;2022-09-30T16:09:45;4.22;;;3.40;;
44728;SDS011;30457;53.590;9.922;2022-09-30T16:14:20;4.25;;;3.42;;
44728;SDS011;30457;53.590;9.922;2022-09-30T16:18:52;4.93;;;2.88;;
44728;SDS011;30457;53.590;9.922;2022-09-30T16:23:25;3.25;;;2.95;;
44728;SDS011;30457;53.590;9.922;2022-09-30T16:28:09;3.90;;;2.97;;
44728;SDS011;30457;53.590;9.922;2022-09-30T16:32:37;3.67;;;3.38;;
44728;SDS011;30457;53.590;9.922;2022-09-30T16:37:09;7.07;;;3.00;;
44728;SDS011;30457;53.590;9.922;2022-09-30T16:41:41;2.85;;;2.55;;
44728;SDS011;30457;53.590;9.922;2022-09-30T16:46:07;4.60;;;3.03;;
44728;SDS011;30457;53.590;9.922;2022-09-30T16:50:34;3.28;;;2.97;;
44728;SDS011;30457;53.590;9.922;2022-09-30T16:55:04;5.18;;;2.88;;
44728;SDS011;30457;53.590;9.922;2022-09-30T16:59:29;5.93;;;3.13;;
44728;SDS011;30457;53.590;9.922;2022-09-30T17:03:56;3.97;;;3.22;;
44728;SDS011;30457;53.590;9.922;2022-09-30T17:08:22;4.25;;;3.20;;
44728;SDS011;30457;53.590;9.922;2022-09-30T17:12:48;6.95;;;3.45;;
44728;SDS011;30457;53.590;9.922;2022-09-30T17:17:14;3.90;;;3.20;;
44728;SDS011;30457;53.590;9.922;2022-09-30T17:21:39;3.47;;;3.17;;
44728;SDS011;30457;53.590;9.922;2022-09-30T17:26:05;4.00;;;3.38;;
44728;SDS011;30457;53.590;9.922;2022-09-30T17:30:31;5.13;;;3.10;;
44728;SDS011;30457;53.590;9.922;2022-09-30T17:34:57;5.10;;;3.40;;
44728;SDS011;30457;53.590;9.922;2022-09-30T17:39:24;3.60;;;3.15;;
44728;SDS011;30457;53.590;9.922;2022-09-30T17:43:50;3.35;;;2.90;;
44728;SDS011;30457;53.590;9.922;2022-09-30T17:48:16;7.10;;;3.70;;
44728;SDS011;30457;53.590;9.922;2022-09-30T17:52:42;5.00;;;3.20;;
44728;SDS011;30457;53.590;9.922;2022-09-30T17:57:08;4.32;;;3.63;;
44728;SDS011;30457;53.590;9.922;2022-09-30T18:01:33;4.93;;;3.13;;
44728;SDS011;30457;53.590;9.922;2022-09-30T18:06:00;4.80;;;3.65;;
44728;SDS011;30457;53.590;9.922;2022-09-30T18:10:25;4.50;;;3.17;;
44728;SDS011;30457;53.590;9.922;2022-09-30T18:14:52;5.35;;;3.65;;
44728;SDS011;30457;53.590;9.922;2022-09-30T18:19:19;3.80;;;3.20;;
44728;SDS011;30457;53.590;9.922;2022-09-30T18:23:44;6.13;;;3.05;;
44728;SDS011;30457;53.590;9.922;2022-09-30T18:28:10;5.10;;;3.03;;
44728;SDS011;30457;53.590;9.922;2022-09-30T18:32:36;5.68;;;2.72;;
44728;SDS011;30457;53.590;9.922;2022-09-30T18:37:02;3.42;;;3.13;;
44728;SDS011;30457;53.590;9.922;2022-09-30T18:41:29;4.93;;;2.90;;
44728;SDS011;30457;53.590;9.922;2022-09-30T18:45:56;4.78;;;3.38;;
44728;SDS011;30457;53.590;9.922;2022-09-30T18:50:22;8.10;;;3.10;;
44728;SDS011;30457;53.590;9.922;2022-09-30T18:54:49;3.53;;;3.15;;
44728;SDS011;30457;53.590;9.922;2022-09-30T18:59:14;4.18;;;3.67;;
44728;SDS011;30457;53.590;9.922;2022-09-30T19:03:40;3.80;;;2.80;;
44728;SDS011;30457;53.590;9.922;2022-09-30T19:08:06;6.80;;;2.92;;
44728;SDS011;30457;53.590;9.922;2022-09-30T19:12:33;4.47;;;3.15;;
44728;SDS011;30457;53.590;9.922;2022-09-30T19:17:00;5.47;;;3.05;;
44728;SDS011;30457;53.590;9.922;2022-09-30T19:21:25;3.30;;;3.00;;
44728;SDS011;30457;53.590;9.922;2022-09-30T19:25:52;4.47;;;3.08;;
44728;SDS011;30457;53.590;9.922;2022-09-30T19:30:17;5.07;;;3.05;;
44728;SDS011;30457;53.590;9.922;2022-09-30T19:34:44;3.80;;;2.83;;
44728;SDS011;30457;53.590;9.922;2022-09-30T19:39:10;3.10;;;2.80;;
44728;SDS011;30457;53.590;9.922;2022-09-30T19:43:36;4.03;;;2.90;;
44728;SDS011;30457;53.590;9.922;2022-09-30T19:48:04;4.28;;;2.80;;
44728;SDS011;30457;53.590;9.922;2022-09-30T19:52:32;3.03;;;2.45;;
44728;SDS011;30457;53.590;9.922;2022-09-30T19:56:57;4.45;;;3.40;;
44728;SDS011;30457;53.590;9.922;2022-09-30T20:01:23;4.78;;;2.80;;
44728;SDS011;30457;53.590;9.922;2022-09-30T20:06:05;3.13;;;2.83;;
44728;SDS011;30457;53.590;9.922;2022-09-30T20:10:33;2.83;;;2.38;;
44728;SDS011;30457;53.590;9.922;2022-09-30T20:14:58;2.95;;;2.60;;
44728;SDS011;30457;53.590;9.922;2022-09-30T20:19:42;3.35;;;2.22;;
44728;SDS011;30457;53.590;9.922;2022-09-30T20:24:28;3.45;;;2.80;;
44728;SDS011;30457;53.590;9.922;2022-09-30T20:28:57;3.58;;;2.80;;
44728;SDS011;30457;53.590;9.922;2022-09-30T20:33:23;7.45;;;3.20;;
44728;SDS011;30457;53.590;9.922;2022-09-30T20:37:49;4.25;;;3.33;;
44728;SDS011;30457;53.590;9.922;2022-09-30T20:42:15;5.43;;;3.17;;
44728;SDS011;30457;53.590;9.922;2022-09-30T20:46:41;5.15;;;2.80;;
44728;SDS011;30457;53.590;9.922;2022-09-30T20:51:08;5.40;;;3.15;;
44728;SDS011;30457;53.590;9.922;2022-09-30T20:55:36;2.80;;;2.50;;
44728;SDS011;30457;53.590;9.922;2022-09-30T21:00:03;4.30;;;3.20;;
44728;SDS011;30457;53.590;9.922;2022-09-30T21:04:28;3.22;;;2.88;;
44728;SDS011;30457;53.590;9.922;2022-09-30T21:08:54;3.22;;;2.90;;
44728;SDS011;30457;53.590;9.922;2022-09-30T21:13:20;3.75;;;3.10;;
44728;SDS011;30457;53.590;9.922;2022-09-30T21:17:46;4.57;;;2.63;;
44728;SDS011;30457;53.590;9.922;2022-09-30T21:22:12;3.53;;;2.65;;
44728;SDS011;30457;53.590;9.922;2022-09-30T21:26:37;3.30;;;2.75;;
44728;SDS011;30457;53.590;9.922;2022-09-30T21:31:03;3.10;;;2.65;;
44728;SDS011;30457;53.590;9.922;2022-09-30T21:35:30;3.40;;;2.90;;
44728;SDS011;30457;53.590;9.922;2022-09-30T21:39:56;3.58;;;3.20;;
44728;SDS011;30457;53.590;9.922;2022-09-30T21:44:21;7.03;;;3.42;;
44728;SDS011;30457;53.590;9.922;2022-09-30T21:48:47;4.55;;;2.90;;
44728;SDS011;30457;53.590;9.922;2022-09-30T21:53:12;3.15;;;2.72;;
44728;SDS011;30457;53.590;9.922;2022-09-30T21:57:38;4.50;;;3.13;;
44728;SDS011;30457;53.590;9.922;2022-09-30T22:02:04;5.40;;;3.33;;
44728;SDS011;30457;53.590;9.922;2022-09-30T22:06:30;4.90;;;2.75;;
44728;SDS011;30457;53.590;9.922;2022-09-30T22:10:56;3.88;;;3.20;;
44728;SDS011;30457;53.590;9.922;2022-09-30T22:15:22;4.05;;;3.03;;
44728;SDS011;30457;53.590;9.922;2022-09-30T22:19:48;3.95;;;3.00;;
44728;SDS011;30457;53.590;9.922;2022-09-30T22:24:13;3.13;;;2.55;;
44728;SDS011;30457;53.590;9.922;2022-09-30T22:28:39;5.72;;;3.25;;
44728;SDS011;30457;53.590;9.922;2022-09-30T22:33:04;3.38;;;2.80;;
44728;SDS011;30457;53.590;9.922;2022-09-30T22:37:49;6.50;;;3.10;;
44728;SDS011;30457;53.590;9.922;2022-09-30T22:42:33;3.25;;;2.53;;
44728;SDS011;30457;53.590;9.922;2022-09-30T22:46:59;3.92;;;3.00;;
44728;SDS011;30457;53.590;9.922;2022-09-30T22:51:25;4.25;;;3.15;;
44728;SDS011;30457;53.590;9.922;2022-09-30T22:55:51;5.68;;;3.10;;
44728;SDS011;30457;53.590;9.922;2022-09-30T23:00:17;3.08;;;2.78;;
44728;SDS011;30457;53.590;9.922;2022-09-30T23:04:42;4.57;;;2.90;;
44728;SDS011;30457;53.590;9.922;2022-09-30T23:09:08;3.45;;;2.63;;
44728;SDS011;30457;53.590;9.922;2022-09-30T23:13:34;3.00;;;2.70;;
44728;SDS011;30457;53.590;9.922;2022-09-30T23:18:00;3.75;;;2.03;;
44728;SDS011;30457;53.590;9.922;2022-09-30T23:22:26;6.28;;;2.30;;
44728;SDS011;30457;53.590;9.922;2022-09-30T23:26:51;2.22;;;2.00;;
44728;SDS011;30457;53.590;9.922;2022-09-30T23:31:17;2.13;;;1.80;;
44728;SDS011;30457;53.590;9.922;2022-09-30T23:35:46;2.15;;;1.90;;
44728;SDS011;30457;53.590;9.922;2022-09-30T23:40:12;2.70;;;1.65;;
44728;SDS011;30457;53.590;9.922;2022-09-30T23:44:38;2.88;;;1.88;;
44728;SDS011;30457;53.590;9.922;2022-09-30T23:49:04;2.30;;;1.85;;
44728;SDS011;30457;53.590;9.922;2022-09-30T23:53:30;5.00;;;1.60;;
44728;SDS011;30457;53.590;9.922;2022-09-30T23:57:56;2.10;;;1.48;;
